| time (UTC) | temp C | wind direction | speed KPH | gust KPH | rain 1hr cm | rain 24hr cm | rain mn cm | humidity % | barometer mb |
| 20260906034556 | 16 | 174 | 0.0 | 3.2 | 0.00 | 0.00 | 0.00 | 83 | 1025.2 |
| 20260906033046 | 17 | 174 | 0.0 | 3.2 | 0.00 | 0.00 | 0.00 | 82 | 1025.1 |
| 20260906031547 | 17 | 174 | 0.0 | 4.8 | 0.00 | 0.00 | 0.00 | 82 | 1025.0 |
| 20260906030047 | 17 | 142 | 3.2 | 4.8 | 0.00 | 0.00 | 0.00 | 81 | 1025.0 |
| 20260906024542 | 17 | 141 | 1.6 | 3.2 | 0.00 | 0.00 | 0.00 | 81 | 1024.9 |
| 20260906023045 | 17 | 141 | 0.0 | 1.6 | 0.00 | 0.00 | 0.00 | 80 | 1024.9 |
| 20260906021544 | 18 | 141 | 0.0 | 3.2 | 0.00 | 0.00 | 0.00 | 80 | 1024.7 |
| 20260906020037 | 18 | 141 | 0.0 | 3.2 | 0.00 | 0.00 | 0.00 | 79 | 1024.5 |
| 20260906014546 | 18 | 141 | 0.0 | 3.2 | 0.00 | 0.00 | 0.00 | 79 | 1024.6 |
| 20260906013042 | 18 | 141 | 0.0 | 1.6 | 0.00 | 0.00 | 0.00 | 78 | 1024.6 |
| 20260906011536 | 18 | 141 | 0.0 | 3.2 | 0.00 | 0.00 | 0.00 | 79 | 1024.4 |
| 20260906010034 | 18 | 141 | 0.0 | 1.6 | 0.00 | 0.00 | 0.00 | 79 | 1024.3 |
| 20260906004534 | 18 | 141 | 0.0 | 1.6 | 0.00 | 0.00 | 0.00 | 80 | 1024.3 |
| 20260906003032 | 17 | 141 | 1.6 | 3.2 | 0.00 | 0.00 | 0.00 | 81 | 1024.3 |
| 20260906001532 | 17 | 141 | 0.0 | 3.2 | 0.00 | 0.00 | 0.00 | 81 | 1024.3 |
| 20260906000029 | 17 | 141 | 0.0 | 1.6 | 0.00 | 0.00 | 0.00 | 79 | 1024.2 |
| 20260905234529 | 18 | 141 | 1.6 | 3.2 | 0.00 | 0.00 | 0.00 | 78 | 1024.0 |
| 20260905233024 | 18 | 141 | 0.0 | 4.8 | 0.00 | 0.00 | 0.00 | 76 | 1024.0 |
| 20260905231521 | 19 | 122 | 0.0 | 3.2 | 0.00 | 0.00 | 0.00 | 76 | 1024.0 |
| 20260905230018 | 20 | 122 | 0.0 | 3.2 | 0.00 | 0.00 | 0.00 | 74 | 1023.8 |
| 20260905224519 | 20 | 122 | 0.0 | 1.6 | 0.00 | 0.00 | 0.00 | 73 | 1023.8 |
| 20260905223015 | 21 | 122 | 0.0 | 3.2 | 0.00 | 0.00 | 0.00 | 72 | 1023.7 |
| 20260905221514 | 20 | 122 | 0.0 | 0.0 | 0.00 | 0.00 | 0.00 | 73 | 1023.7 |
| 20260905220009 | 20 | 122 | 0.0 | 3.2 | 0.00 | 0.00 | 0.00 | 72 | 1023.4 |
| 20260905214510 | 20 | 122 | 0.0 | 3.2 | 0.00 | 0.00 | 0.00 | 73 | 1023.5 |
| 20260905213008 | 20 | 122 | 0.0 | 3.2 | 0.00 | 0.00 | 0.00 | 73 | 1023.4 |
| 20260905211507 | 20 | 122 | 0.0 | 3.2 | 0.00 | 0.00 | 0.00 | 73 | 1023.2 |
| 20260905210007 | 20 | 122 | 0.0 | 1.6 | 0.00 | 0.00 | 0.00 | 73 | 1023.1 |
| 20260905204503 | 20 | 122 | 1.6 | 4.8 | 0.00 | 0.00 | 0.00 | 72 | 1023.0 |
| 20260905203003 | 20 | 121 | 0.0 | 4.8 | 0.00 | 0.00 | 0.00 | 71 | 1022.9 |
| 20260905201501 | 20 | 121 | 1.6 | 3.2 | 0.00 | 0.00 | 0.00 | 69 | 1022.7 |
| 20260905200103 | 21 | 121 | 0.0 | 3.2 | 0.00 | 0.00 | 0.00 | 68 | 1022.7 |
| 20260905194559 | 22 | 121 | 0.0 | 3.2 | 0.00 | 0.00 | 0.00 | 64 | 1022.4 |
| 20260905193057 | 22 | 121 | 0.0 | 1.6 | 0.00 | 0.00 | 0.00 | 65 | 1022.2 |
| 20260905191555 | 22 | 121 | 0.0 | 1.6 | 0.00 | 0.00 | 0.00 | 63 | 1021.9 |
| 20260905190059 | 23 | 121 | 0.0 | 3.2 | 0.00 | 0.00 | 0.00 | 63 | 1021.6 |
| 20260905184553 | 23 | 121 | 0.0 | 1.6 | 0.00 | 0.00 | 0.00 | 62 | 1021.7 |
| 20260905183109 | 23 | 121 | 0.0 | 3.2 | 0.00 | 0.00 | 0.00 | 62 | 1021.4 |
| 20260905181549 | 23 | 117 | 1.6 | 4.8 | 0.00 | 0.00 | 0.00 | 60 | 1021.1 |
| 20260905180047 | 24 | 117 | 1.6 | 3.2 | 0.00 | 0.00 | 0.00 | 58 | 1020.9 |
| 20260905174545 | 25 | 117 | 1.6 | 4.8 | 0.00 | 0.00 | 0.00 | 55 | 1020.8 |
| 20260905173044 | 25 | 51 | 0.0 | 3.2 | 0.00 | 0.00 | 0.00 | 52 | 1020.6 |
| 20260905171549 | 26 | 77 | 1.6 | 6.4 | 0.00 | 0.00 | 0.00 | 50 | 1020.3 |
| 20260905170042 | 26 | 78 | 1.6 | 11.3 | 0.00 | 0.00 | 0.00 | 48 | 1020.1 |
| 20260905164541 | 27 | 89 | 3.2 | 12.9 | 0.00 | 0.00 | 0.00 | 47 | 1020.1 |
| 20260905163041 | 27 | 34 | 3.2 | 14.5 | 0.00 | 0.00 | 0.00 | 46 | 1019.7 |
| 20260905161537 | 28 | 79 | 6.4 | 16.1 | 0.00 | 0.00 | 0.00 | 45 | 1019.5 |
| 20260905160035 | 28 | 96 | 6.4 | 19.3 | 0.00 | 0.00 | 0.00 | 45 | 1019.3 |
| 20260905154533 | 28 | 22 | 6.4 | 14.5 | 0.00 | 0.00 | 0.00 | 45 | 1019.1 |
| 20260905153044 | 28 | 80 | 9.7 | 22.5 | 0.00 | 0.00 | 0.00 | 45 | 1019.1 |
| 20260905151531 | 28 | 50 | 8.0 | 19.3 | 0.00 | 0.00 | 0.00 | 44 | 1019.0 |
| 20260905150030 | 29 | 41 | 4.8 | 19.3 | 0.00 | 0.00 | 0.00 | 43 | 1019.0 |
| 20260905144530 | 29 | 96 | 6.4 | 17.7 | 0.00 | 0.00 | 0.00 | 43 | 1019.0 |
| 20260905143029 | 30 | 111 | 8.0 | 20.9 | 0.00 | 0.00 | 0.00 | 42 | 1018.6 |
| 20260905141531 | 30 | 90 | 4.8 | 20.9 | 0.00 | 0.00 | 0.00 | 42 | 1018.7 |
| 20260905140027 | 30 | 113 | 8.0 | 27.4 | 0.00 | 0.00 | 0.00 | 43 | 1018.7 |
| 20260905134525 | 30 | 111 | 8.0 | 24.1 | 0.00 | 0.00 | 0.00 | 43 | 1018.6 |
| 20260905133023 | 30 | 98 | 9.7 | 25.7 | 0.00 | 0.00 | 0.00 | 43 | 1018.4 |
| 20260905131523 | 30 | 55 | 8.0 | 16.1 | 0.00 | 0.00 | 0.00 | 43 | 1018.4 |
| 20260905130022 | 30 | 89 | 9.7 | 22.5 | 0.00 | 0.00 | 0.00 | 44 | 1018.3 |
| 20260905124524 | 30 | 22 | 8.0 | 24.1 | 0.00 | 0.00 | 0.00 | 45 | 1018.3 |
| 20260905123020 | 30 | 53 | 11.3 | 22.5 | 0.00 | 0.00 | 0.00 | 46 | 1018.5 |
| 20260905121518 | 30 | 18 | 11.3 | 33.8 | 0.00 | 0.00 | 0.00 | 44 | 1018.3 |
| 20260905120021 | 30 | 105 | 9.7 | 29.0 | 0.00 | 0.00 | 0.00 | 45 | 1018.3 |
| 20260905114517 | 31 | 62 | 9.7 | 30.6 | 0.00 | 0.00 | 0.00 | 46 | 1018.2 |
| 20260905113013 | 32 | 70 | 9.7 | 19.3 | 0.00 | 0.00 | 0.00 | 45 | 1018.0 |
| 20260905111516 | 32 | 120 | 8.0 | 24.1 | 0.00 | 0.00 | 0.00 | 46 | 1018.0 |
| 20260905110011 | 32 | 78 | 9.7 | 24.1 | 0.00 | 0.00 | 0.00 | 42 | 1017.7 |
| 20260905104508 | 33 | 297 | 3.2 | 6.4 | 0.00 | 0.00 | 0.00 | 33 | 1017.7 |
| 20260905103007 | 33 | 76 | 3.2 | 11.3 | 0.00 | 0.00 | 0.00 | 34 | 1017.8 |
| 20260905101505 | 33 | 56 | 1.6 | 6.4 | 0.00 | 0.00 | 0.00 | 33 | 1017.8 |
| 20260905100002 | 32 | 184 | 3.2 | 9.7 | 0.00 | 0.00 | 0.00 | 33 | 1018.0 |
| 20260905094559 | 32 | 341 | 0.0 | 4.8 | 0.00 | 0.00 | 0.00 | 34 | 1018.1 |
| 20260905093055 | 32 | 333 | 1.6 | 4.8 | 0.00 | 0.00 | 0.00 | 35 | 1017.9 |
| 20260905091557 | 31 | 249 | 1.6 | 6.4 | 0.00 | 0.00 | 0.00 | 36 | 1017.9 |
| 20260905090112 | 31 | 250 | 1.6 | 9.7 | 0.00 | 0.00 | 0.00 | 36 | 1017.7 |
| 20260905084548 | 31 | 261 | 0.0 | 4.8 | 0.00 | 0.00 | 0.00 | 38 | 1017.7 |
| 20260905083051 | 30 | 300 | 1.6 | 4.8 | 0.00 | 0.00 | 0.00 | 41 | 1017.7 |
| 20260905081548 | 30 | 321 | 0.0 | 3.2 | 0.00 | 0.00 | 0.00 | 44 | 1017.6 |
| 20260905080046 | 28 | 268 | 1.6 | 6.4 | 0.00 | 0.00 | 0.00 | 47 | 1017.5 |
| 20260905074538 | 28 | 327 | 1.6 | 6.4 | 0.00 | 0.00 | 0.00 | 51 | 1017.3 |
| 20260905073032 | 26 | 279 | 0.0 | 1.6 | 0.00 | 0.00 | 0.00 | 53 | 1017.2 |
| 20260905071529 | 25 | 279 | 1.6 | 3.2 | 0.00 | 0.00 | 0.00 | 58 | 1017.3 |
| 20260905070024 | 23 | 279 | 0.0 | 3.2 | 0.00 | 0.00 | 0.00 | 62 | 1017.3 |
| 20260905064520 | 22 | 279 | 0.0 | 3.2 | 0.00 | 0.00 | 0.00 | 66 | 1017.6 |
| 20260905063016 | 21 | 279 | 0.0 | 1.6 | 0.00 | 0.00 | 0.00 | 69 | 1017.5 |
| 20260905061515 | 20 | 279 | 0.0 | 3.2 | 0.00 | 0.00 | 0.00 | 74 | 1017.3 |
| 20260905060008 | 18 | 279 | 0.0 | 4.8 | 0.00 | 0.00 | 0.00 | 78 | 1017.5 |
| 20260905054506 | 17 | 273 | 0.0 | 1.6 | 0.00 | 0.00 | 0.00 | 82 | 1017.4 |
| 20260905053004 | 16 | 273 | 0.0 | 3.2 | 0.00 | 0.00 | 0.00 | 85 | 1017.5 |
| 20260905051507 | 15 | 273 | 0.0 | 3.2 | 0.00 | 0.00 | 0.00 | 88 | 1017.3 |
| 20260905050107 | 15 | 331 | 1.6 | 3.2 | 0.00 | 0.00 | 0.00 | 88 | 1017.1 |
| 20260905044602 | 14 | 331 | 0.0 | 1.6 | 0.00 | 0.00 | 0.00 | 87 | 1017.1 |
| 20260905043058 | 15 | 331 | 0.0 | 6.4 | 0.00 | 0.00 | 0.00 | 88 | 1016.9 |
| 20260905041557 | 15 | 319 | 0.0 | 3.2 | 0.00 | 0.00 | 0.00 | 87 | 1016.7 |